sensor_id;sensor_type;location;lat;lon;timestamp;P1;durP1;ratioP1;P2;durP2;ratioP2
46318;SDS011;32042;50.916;2.926;2023-04-27T00:00:43;8.93;;;8.03;;
46318;SDS011;32042;50.916;2.926;2023-04-27T00:03:09;10.13;;;8.23;;
46318;SDS011;32042;50.916;2.926;2023-04-27T00:05:36;10.40;;;8.07;;
46318;SDS011;32042;50.916;2.926;2023-04-27T00:08:03;10.83;;;8.47;;
46318;SDS011;32042;50.916;2.926;2023-04-27T00:10:31;8.90;;;7.70;;
46318;SDS011;32042;50.916;2.926;2023-04-27T00:12:57;10.43;;;9.23;;
46318;SDS011;32042;50.916;2.926;2023-04-27T00:15:23;11.53;;;8.60;;
46318;SDS011;32042;50.916;2.926;2023-04-27T00:17:49;10.10;;;8.60;;
46318;SDS011;32042;50.916;2.926;2023-04-27T00:20:15;13.03;;;9.07;;
46318;SDS011;32042;50.916;2.926;2023-04-27T00:22:41;12.13;;;8.67;;
46318;SDS011;32042;50.916;2.926;2023-04-27T00:25:07;11.77;;;9.13;;
46318;SDS011;32042;50.916;2.926;2023-04-27T00:27:33;12.30;;;8.33;;
46318;SDS011;32042;50.916;2.926;2023-04-27T00:29:59;9.60;;;8.37;;
46318;SDS011;32042;50.916;2.926;2023-04-27T00:32:24;11.60;;;8.97;;
46318;SDS011;32042;50.916;2.926;2023-04-27T00:34:50;9.50;;;8.60;;
46318;SDS011;32042;50.916;2.926;2023-04-27T00:37:16;13.53;;;9.20;;
46318;SDS011;32042;50.916;2.926;2023-04-27T00:39:42;11.53;;;9.03;;
46318;SDS011;32042;50.916;2.926;2023-04-27T00:42:08;9.97;;;9.00;;
46318;SDS011;32042;50.916;2.926;2023-04-27T00:44:38;11.40;;;9.57;;
46318;SDS011;32042;50.916;2.926;2023-04-27T00:47:03;10.63;;;8.60;;
46318;SDS011;32042;50.916;2.926;2023-04-27T00:49:30;15.80;;;9.17;;
46318;SDS011;32042;50.916;2.926;2023-04-27T00:51:56;10.80;;;8.87;;
46318;SDS011;32042;50.916;2.926;2023-04-27T00:54:22;12.03;;;8.80;;
46318;SDS011;32042;50.916;2.926;2023-04-27T00:56:49;11.13;;;8.93;;
46318;SDS011;32042;50.916;2.926;2023-04-27T00:59:15;10.27;;;9.00;;
46318;SDS011;32042;50.916;2.926;2023-04-27T01:01:42;9.77;;;8.67;;
46318;SDS011;32042;50.916;2.926;2023-04-27T01:04:08;14.17;;;9.07;;
46318;SDS011;32042;50.916;2.926;2023-04-27T01:06:34;11.07;;;7.87;;
46318;SDS011;32042;50.916;2.926;2023-04-27T01:09:00;12.17;;;9.07;;
46318;SDS011;32042;50.916;2.926;2023-04-27T01:11:25;11.67;;;8.97;;
46318;SDS011;32042;50.916;2.926;2023-04-27T01:13:51;9.77;;;8.77;;
46318;SDS011;32042;50.916;2.926;2023-04-27T01:16:18;10.00;;;8.77;;
46318;SDS011;32042;50.916;2.926;2023-04-27T01:18:45;10.87;;;8.47;;
46318;SDS011;32042;50.916;2.926;2023-04-27T01:21:11;9.43;;;7.93;;
46318;SDS011;32042;50.916;2.926;2023-04-27T01:23:37;9.33;;;8.43;;
46318;SDS011;32042;50.916;2.926;2023-04-27T01:26:02;8.93;;;7.70;;
46318;SDS011;32042;50.916;2.926;2023-04-27T01:28:28;10.30;;;8.47;;
46318;SDS011;32042;50.916;2.926;2023-04-27T01:30:54;11.83;;;8.93;;
46318;SDS011;32042;50.916;2.926;2023-04-27T01:33:20;10.00;;;8.63;;
46318;SDS011;32042;50.916;2.926;2023-04-27T01:35:46;12.93;;;8.13;;
46318;SDS011;32042;50.916;2.926;2023-04-27T01:38:12;10.80;;;8.67;;
46318;SDS011;32042;50.916;2.926;2023-04-27T01:40:37;14.07;;;9.40;;
46318;SDS011;32042;50.916;2.926;2023-04-27T01:43:03;10.13;;;7.90;;
46318;SDS011;32042;50.916;2.926;2023-04-27T01:45:29;12.03;;;8.87;;
46318;SDS011;32042;50.916;2.926;2023-04-27T01:47:55;14.23;;;8.70;;
46318;SDS011;32042;50.916;2.926;2023-04-27T01:50:20;9.10;;;8.13;;
46318;SDS011;32042;50.916;2.926;2023-04-27T01:52:46;11.07;;;8.73;;
46318;SDS011;32042;50.916;2.926;2023-04-27T01:55:12;9.73;;;8.37;;
46318;SDS011;32042;50.916;2.926;2023-04-27T01:57:38;12.43;;;9.03;;
46318;SDS011;32042;50.916;2.926;2023-04-27T02:00:04;10.90;;;9.10;;
46318;SDS011;32042;50.916;2.926;2023-04-27T02:02:30;10.53;;;9.43;;
46318;SDS011;32042;50.916;2.926;2023-04-27T02:04:56;11.93;;;8.67;;
46318;SDS011;32042;50.916;2.926;2023-04-27T02:07:21;9.73;;;8.83;;
46318;SDS011;32042;50.916;2.926;2023-04-27T02:09:47;10.90;;;8.37;;
46318;SDS011;32042;50.916;2.926;2023-04-27T02:12:13;13.47;;;9.63;;
46318;SDS011;32042;50.916;2.926;2023-04-27T02:14:39;10.03;;;8.30;;
46318;SDS011;32042;50.916;2.926;2023-04-27T02:17:04;10.70;;;9.13;;
46318;SDS011;32042;50.916;2.926;2023-04-27T02:19:30;11.73;;;9.27;;
46318;SDS011;32042;50.916;2.926;2023-04-27T02:21:56;10.13;;;9.13;;
46318;SDS011;32042;50.916;2.926;2023-04-27T02:24:22;12.10;;;9.07;;
46318;SDS011;32042;50.916;2.926;2023-04-27T02:26:47;11.37;;;10.17;;
46318;SDS011;32042;50.916;2.926;2023-04-27T02:29:13;13.43;;;9.93;;
46318;SDS011;32042;50.916;2.926;2023-04-27T02:31:41;12.17;;;9.60;;
46318;SDS011;32042;50.916;2.926;2023-04-27T02:34:08;14.17;;;9.13;;
46318;SDS011;32042;50.916;2.926;2023-04-27T02:36:34;12.00;;;9.43;;
46318;SDS011;32042;50.916;2.926;2023-04-27T02:39:00;12.87;;;9.67;;
46318;SDS011;32042;50.916;2.926;2023-04-27T02:41:30;12.93;;;9.83;;
46318;SDS011;32042;50.916;2.926;2023-04-27T02:43:57;10.63;;;9.57;;
46318;SDS011;32042;50.916;2.926;2023-04-27T02:46:24;10.83;;;9.47;;
46318;SDS011;32042;50.916;2.926;2023-04-27T02:48:51;14.07;;;10.50;;
46318;SDS011;32042;50.916;2.926;2023-04-27T02:51:18;12.20;;;9.63;;
46318;SDS011;32042;50.916;2.926;2023-04-27T02:53:45;13.03;;;9.50;;
46318;SDS011;32042;50.916;2.926;2023-04-27T02:56:10;16.43;;;10.13;;
46318;SDS011;32042;50.916;2.926;2023-04-27T02:58:36;12.37;;;9.73;;
46318;SDS011;32042;50.916;2.926;2023-04-27T03:01:02;14.03;;;9.80;;
46318;SDS011;32042;50.916;2.926;2023-04-27T03:03:28;13.70;;;9.87;;
46318;SDS011;32042;50.916;2.926;2023-04-27T03:05:54;12.80;;;9.47;;
46318;SDS011;32042;50.916;2.926;2023-04-27T03:08:20;12.50;;;10.23;;
46318;SDS011;32042;50.916;2.926;2023-04-27T03:10:45;10.50;;;9.47;;
46318;SDS011;32042;50.916;2.926;2023-04-27T03:13:12;11.13;;;9.43;;
46318;SDS011;32042;50.916;2.926;2023-04-27T03:15:39;18.40;;;10.93;;
46318;SDS011;32042;50.916;2.926;2023-04-27T03:18:05;12.93;;;10.30;;
46318;SDS011;32042;50.916;2.926;2023-04-27T03:20:30;16.17;;;10.30;;
46318;SDS011;32042;50.916;2.926;2023-04-27T03:22:56;10.83;;;9.73;;
46318;SDS011;32042;50.916;2.926;2023-04-27T03:25:22;13.47;;;9.77;;
46318;SDS011;32042;50.916;2.926;2023-04-27T03:27:48;13.30;;;9.17;;
46318;SDS011;32042;50.916;2.926;2023-04-27T03:30:13;13.00;;;9.43;;
46318;SDS011;32042;50.916;2.926;2023-04-27T03:32:39;15.30;;;9.67;;
46318;SDS011;32042;50.916;2.926;2023-04-27T03:35:05;15.63;;;10.13;;
46318;SDS011;32042;50.916;2.926;2023-04-27T03:37:32;13.70;;;10.10;;
46318;SDS011;32042;50.916;2.926;2023-04-27T03:39:58;15.33;;;10.90;;
46318;SDS011;32042;50.916;2.926;2023-04-27T03:42:24;12.40;;;10.17;;
46318;SDS011;32042;50.916;2.926;2023-04-27T03:44:49;12.60;;;9.77;;
46318;SDS011;32042;50.916;2.926;2023-04-27T03:47:15;13.67;;;10.80;;
46318;SDS011;32042;50.916;2.926;2023-04-27T03:49:41;14.60;;;9.50;;
46318;SDS011;32042;50.916;2.926;2023-04-27T03:52:06;11.27;;;10.07;;
46318;SDS011;32042;50.916;2.926;2023-04-27T03:54:32;15.47;;;10.13;;
46318;SDS011;32042;50.916;2.926;2023-04-27T03:56:58;17.27;;;10.50;;
46318;SDS011;32042;50.916;2.926;2023-04-27T03:59:23;13.37;;;9.70;;
46318;SDS011;32042;50.916;2.926;2023-04-27T04:01:52;16.30;;;9.43;;
46318;SDS011;32042;50.916;2.926;2023-04-27T04:04:18;13.53;;;9.57;;
46318;SDS011;32042;50.916;2.926;2023-04-27T04:06:43;11.23;;;9.47;;
46318;SDS011;32042;50.916;2.926;2023-04-27T04:09:09;14.90;;;9.50;;
46318;SDS011;32042;50.916;2.926;2023-04-27T04:11:36;10.37;;;9.30;;
46318;SDS011;32042;50.916;2.926;2023-04-27T04:14:02;12.87;;;9.60;;
46318;SDS011;32042;50.916;2.926;2023-04-27T04:16:27;13.10;;;9.47;;
46318;SDS011;32042;50.916;2.926;2023-04-27T04:18:53;13.37;;;9.43;;
46318;SDS011;32042;50.916;2.926;2023-04-27T04:21:19;12.40;;;10.23;;
46318;SDS011;32042;50.916;2.926;2023-04-27T04:23:45;11.50;;;9.80;;
46318;SDS011;32042;50.916;2.926;2023-04-27T04:26:10;10.40;;;9.37;;
46318;SDS011;32042;50.916;2.926;2023-04-27T04:28:38;12.77;;;10.33;;
46318;SDS011;32042;50.916;2.926;2023-04-27T04:31:04;11.00;;;9.73;;
46318;SDS011;32042;50.916;2.926;2023-04-27T04:33:32;11.67;;;10.47;;
46318;SDS011;32042;50.916;2.926;2023-04-27T04:35:58;16.50;;;10.80;;
46318;SDS011;32042;50.916;2.926;2023-04-27T04:38:23;14.13;;;9.87;;
46318;SDS011;32042;50.916;2.926;2023-04-27T04:40:49;12.00;;;10.33;;
46318;SDS011;32042;50.916;2.926;2023-04-27T04:43:16;11.77;;;9.90;;
46318;SDS011;32042;50.916;2.926;2023-04-27T04:45:42;16.63;;;10.73;;
46318;SDS011;32042;50.916;2.926;2023-04-27T04:48:08;12.70;;;10.90;;
46318;SDS011;32042;50.916;2.926;2023-04-27T04:50:34;17.17;;;10.40;;
46318;SDS011;32042;50.916;2.926;2023-04-27T04:53:00;13.80;;;11.20;;
46318;SDS011;32042;50.916;2.926;2023-04-27T04:55:27;17.17;;;10.90;;
46318;SDS011;32042;50.916;2.926;2023-04-27T04:57:53;14.23;;;11.13;;
46318;SDS011;32042;50.916;2.926;2023-04-27T05:00:18;15.30;;;11.10;;
46318;SDS011;32042;50.916;2.926;2023-04-27T05:02:44;17.47;;;11.20;;
46318;SDS011;32042;50.916;2.926;2023-04-27T05:05:10;13.77;;;10.93;;
46318;SDS011;32042;50.916;2.926;2023-04-27T05:07:36;14.40;;;11.10;;
46318;SDS011;32042;50.916;2.926;2023-04-27T05:10:01;15.13;;;11.60;;
46318;SDS011;32042;50.916;2.926;2023-04-27T05:12:27;14.03;;;11.73;;
46318;SDS011;32042;50.916;2.926;2023-04-27T05:14:53;16.47;;;12.03;;
46318;SDS011;32042;50.916;2.926;2023-04-27T05:17:19;14.93;;;11.10;;
46318;SDS011;32042;50.916;2.926;2023-04-27T05:19:44;16.37;;;11.37;;
46318;SDS011;32042;50.916;2.926;2023-04-27T05:22:10;19.70;;;11.87;;
46318;SDS011;32042;50.916;2.926;2023-04-27T05:24:36;17.60;;;11.77;;
46318;SDS011;32042;50.916;2.926;2023-04-27T05:27:01;15.37;;;11.47;;
46318;SDS011;32042;50.916;2.926;2023-04-27T05:29:27;18.87;;;11.53;;
46318;SDS011;32042;50.916;2.926;2023-04-27T05:31:53;20.33;;;12.93;;
46318;SDS011;32042;50.916;2.926;2023-04-27T05:34:19;18.07;;;12.23;;
46318;SDS011;32042;50.916;2.926;2023-04-27T05:36:45;19.83;;;11.80;;
46318;SDS011;32042;50.916;2.926;2023-04-27T05:39:11;18.37;;;12.87;;
46318;SDS011;32042;50.916;2.926;2023-04-27T05:41:37;15.87;;;11.50;;
46318;SDS011;32042;50.916;2.926;2023-04-27T05:44:04;14.60;;;10.83;;
46318;SDS011;32042;50.916;2.926;2023-04-27T05:46:30;17.37;;;11.23;;
46318;SDS011;32042;50.916;2.926;2023-04-27T05:48:56;16.80;;;11.83;;
46318;SDS011;32042;50.916;2.926;2023-04-27T05:51:22;14.43;;;11.20;;
46318;SDS011;32042;50.916;2.926;2023-04-27T05:53:48;18.13;;;12.83;;
46318;SDS011;32042;50.916;2.926;2023-04-27T05:56:14;16.00;;;11.93;;
46318;SDS011;32042;50.916;2.926;2023-04-27T05:58:40;22.13;;;13.87;;
46318;SDS011;32042;50.916;2.926;2023-04-27T06:01:06;15.17;;;12.53;;
46318;SDS011;32042;50.916;2.926;2023-04-27T06:03:32;16.23;;;12.83;;
46318;SDS011;32042;50.916;2.926;2023-04-27T06:05:58;19.47;;;13.50;;
46318;SDS011;32042;50.916;2.926;2023-04-27T06:08:25;13.40;;;11.90;;
46318;SDS011;32042;50.916;2.926;2023-04-27T06:10:52;13.40;;;12.00;;
46318;SDS011;32042;50.916;2.926;2023-04-27T06:13:18;19.03;;;11.63;;
46318;SDS011;32042;50.916;2.926;2023-04-27T06:15:44;18.80;;;11.80;;
46318;SDS011;32042;50.916;2.926;2023-04-27T06:18:10;23.30;;;12.73;;
46318;SDS011;32042;50.916;2.926;2023-04-27T06:20:36;15.93;;;12.90;;
46318;SDS011;32042;50.916;2.926;2023-04-27T06:23:02;16.53;;;11.60;;
46318;SDS011;32042;50.916;2.926;2023-04-27T06:25:28;16.03;;;12.70;;
46318;SDS011;32042;50.916;2.926;2023-04-27T06:27:54;18.77;;;12.00;;
46318;SDS011;32042;50.916;2.926;2023-04-27T06:30:21;20.80;;;12.00;;
46318;SDS011;32042;50.916;2.926;2023-04-27T06:32:47;16.27;;;12.20;;
46318;SDS011;32042;50.916;2.926;2023-04-27T06:35:13;13.30;;;11.93;;
46318;SDS011;32042;50.916;2.926;2023-04-27T06:37:39;21.53;;;11.70;;
46318;SDS011;32042;50.916;2.926;2023-04-27T06:40:05;20.37;;;12.00;;
46318;SDS011;32042;50.916;2.926;2023-04-27T06:42:32;17.20;;;11.60;;
46318;SDS011;32042;50.916;2.926;2023-04-27T06:44:58;14.93;;;12.30;;
46318;SDS011;32042;50.916;2.926;2023-04-27T06:47:24;16.90;;;12.37;;
46318;SDS011;32042;50.916;2.926;2023-04-27T06:49:50;17.73;;;11.23;;
46318;SDS011;32042;50.916;2.926;2023-04-27T06:52:15;18.30;;;12.40;;
46318;SDS011;32042;50.916;2.926;2023-04-27T06:54:41;14.33;;;10.87;;
46318;SDS011;32042;50.916;2.926;2023-04-27T06:57:07;18.40;;;11.40;;
46318;SDS011;32042;50.916;2.926;2023-04-27T06:59:33;15.80;;;11.00;;
46318;SDS011;32042;50.916;2.926;2023-04-27T07:01:59;14.10;;;11.87;;
46318;SDS011;32042;50.916;2.926;2023-04-27T07:04:25;17.60;;;12.00;;
46318;SDS011;32042;50.916;2.926;2023-04-27T07:06:51;16.80;;;10.90;;
46318;SDS011;32042;50.916;2.926;2023-04-27T07:09:17;20.07;;;11.50;;
46318;SDS011;32042;50.916;2.926;2023-04-27T07:11:43;15.47;;;11.40;;
46318;SDS011;32042;50.916;2.926;2023-04-27T07:14:08;16.47;;;11.57;;
46318;SDS011;32042;50.916;2.926;2023-04-27T07:16:34;19.17;;;11.23;;
46318;SDS011;32042;50.916;2.926;2023-04-27T07:19:00;12.60;;;11.13;;
46318;SDS011;32042;50.916;2.926;2023-04-27T07:21:26;13.83;;;11.53;;
46318;SDS011;32042;50.916;2.926;2023-04-27T07:23:52;13.47;;;11.30;;
46318;SDS011;32042;50.916;2.926;2023-04-27T07:26:18;17.90;;;12.30;;
46318;SDS011;32042;50.916;2.926;2023-04-27T07:28:45;14.53;;;11.87;;
46318;SDS011;32042;50.916;2.926;2023-04-27T07:31:11;14.03;;;11.27;;
46318;SDS011;32042;50.916;2.926;2023-04-27T07:33:38;15.00;;;11.10;;
46318;SDS011;32042;50.916;2.926;2023-04-27T07:36:04;17.70;;;12.03;;
46318;SDS011;32042;50.916;2.926;2023-04-27T07:38:30;17.60;;;12.23;;
46318;SDS011;32042;50.916;2.926;2023-04-27T07:40:59;15.03;;;11.40;;
46318;SDS011;32042;50.916;2.926;2023-04-27T07:43:26;14.67;;;11.57;;
46318;SDS011;32042;50.916;2.926;2023-04-27T07:45:52;15.60;;;11.83;;
46318;SDS011;32042;50.916;2.926;2023-04-27T07:48:19;15.77;;;12.57;;
46318;SDS011;32042;50.916;2.926;2023-04-27T07:50:47;15.63;;;11.57;;
46318;SDS011;32042;50.916;2.926;2023-04-27T07:53:13;21.50;;;12.43;;
46318;SDS011;32042;50.916;2.926;2023-04-27T07:55:38;13.87;;;11.70;;
46318;SDS011;32042;50.916;2.926;2023-04-27T07:58:07;16.50;;;12.27;;
46318;SDS011;32042;50.916;2.926;2023-04-27T08:00:33;13.27;;;11.03;;
46318;SDS011;32042;50.916;2.926;2023-04-27T08:02:59;18.67;;;12.00;;
46318;SDS011;32042;50.916;2.926;2023-04-27T08:05:25;15.63;;;11.93;;
46318;SDS011;32042;50.916;2.926;2023-04-27T08:07:51;16.83;;;11.93;;
46318;SDS011;32042;50.916;2.926;2023-04-27T08:10:17;15.23;;;11.40;;
46318;SDS011;32042;50.916;2.926;2023-04-27T08:12:43;16.00;;;11.30;;
46318;SDS011;32042;50.916;2.926;2023-04-27T08:15:09;18.87;;;11.47;;
46318;SDS011;32042;50.916;2.926;2023-04-27T08:17:35;17.63;;;10.47;;
46318;SDS011;32042;50.916;2.926;2023-04-27T08:20:03;15.07;;;11.97;;
46318;SDS011;32042;50.916;2.926;2023-04-27T08:22:30;14.87;;;11.40;;
46318;SDS011;32042;50.916;2.926;2023-04-27T08:24:56;14.53;;;11.80;;
46318;SDS011;32042;50.916;2.926;2023-04-27T08:27:22;16.53;;;12.00;;
46318;SDS011;32042;50.916;2.926;2023-04-27T08:29:48;14.80;;;11.57;;
46318;SDS011;32042;50.916;2.926;2023-04-27T08:32:14;19.07;;;11.87;;
46318;SDS011;32042;50.916;2.926;2023-04-27T08:34:40;16.07;;;12.03;;
46318;SDS011;32042;50.916;2.926;2023-04-27T08:37:06;18.70;;;11.73;;
46318;SDS011;32042;50.916;2.926;2023-04-27T08:39:32;16.02;;;13.15;;
46318;SDS011;32042;50.916;2.926;2023-04-27T08:41:59;16.60;;;11.30;;
46318;SDS011;32042;50.916;2.926;2023-04-27T08:44:25;18.37;;;12.17;;
46318;SDS011;32042;50.916;2.926;2023-04-27T08:46:50;15.07;;;11.27;;
